Flight Track Log - Related Links

Times and Time Zones

All times are in EDT time to prevent confusion due to time zone crossing. See the JTL909 flight status page for this flight to view local times or setup timezone preferences in your user account.

Time Position Orientation Groundspeed Altitude Reporting Facility
EDT Latitude Longitude Course Direction KTS MPH feet Rate Location/Type
Thu 05:19:26 PM 36.1858 -95.9008 185° South 162 186 1,500  Level Kansas City Center
Thu 05:20:39 PM 36.1089 -95.9083 185° South 234 269 4,200 2,299 Climbing Kansas City Center
Thu 05:21:13 PM 36.0728 -95.9233 199° South 241 277 5,600 1,125 Climbing Kansas City Center
Thu 05:22:15 PM 36.0036 -95.9711 209° Southwest 280 322 6,000 345 Climbing Kansas City Center
Thu 05:22:40 PM 35.9733 -95.9928 210° Southwest 293 337 6,100  Climbing Kansas City Center
Thu 05:23:17 PM 35.9356 -96.0186 209° Southwest 282 325 6,000 121 Descending Kansas City Center
Thu 05:24:19 PM 35.8539 -96.0272 185° South 295 339 6,300 1,161 Climbing Kansas City Center
Thu 05:25:21 PM 35.7761 -96.0089 169° South 301 346 8,400 2,129 Climbing Kansas City Center
Thu 05:26:23 PM 35.7044 -95.9631 153° Southeast 293 337 10,700 2,613 Climbing Kansas City Center
Thu 05:27:25 PM 35.6094 -95.9531 175° South 298 343 13,800 2,758 Climbing Kansas City Center
Thu 05:28:27 PM 35.5244 -95.9672 188° South 304 350 16,400 2,565 Climbing Kansas City Center
Thu 05:29:29 PM 35.4350 -95.9831 188° South 318 366 19,100 2,371 Climbing Kansas City Center
Thu 05:30:31 PM 35.3403 -95.9983 187° South 334 384 21,300 1,826 Climbing Kansas City Center
Thu 05:31:01 PM 35.2775 -96.0097 188° South 341 392 21,900 467 Climbing Fort Worth Center
Thu 05:32:01 PM 35.1608 -96.0294 188° South 386 444 22,000 50 Climbing Fort Worth Center
Thu 05:33:01 PM 35.0422 -96.0492 188° South 420 483 22,000  Level Fort Worth Center
Thu 05:34:01 PM 34.9236 -96.0689 188° South 427 491 22,000  Level Fort Worth Center
Thu 05:35:01 PM 34.8047 -96.0883 188° South 432 497 22,000  Level Fort Worth Center
Thu 05:36:01 PM 34.6881 -96.1053 187° South 432 497 22,000  Level Fort Worth Center
Thu 05:37:01 PM 34.5694 -96.1275 189° South 432 497 22,000  Level Fort Worth Center
Thu 05:38:01 PM 34.4508 -96.1467 188° South 432 497 22,000  Level Fort Worth Center
Thu 05:39:01 PM 34.3342 -96.1636 187° South 432 497 22,000  Level Fort Worth Center
Thu 05:40:01 PM 34.2133 -96.1853 188° South 432 497 22,000  Level Fort Worth Center
Thu 05:41:01 PM 34.1175 -96.1992 187° South 432 497 22,000  Level Fort Worth Center
Thu 05:42:01 PM 33.9778 -96.2211 187° South 427 491 22,000 -450 Level Fort Worth Center
Thu 05:43:01 PM 33.8611 -96.2403 188° South 427 491 21,100 -1,900 Descending Fort Worth Center
Thu 05:44:01 PM 33.7547 -96.2567 187° South 407 468 18,200 -2,800 Descending Fort Worth Center
Thu 05:45:01 PM 33.6611 -96.2731 188° South 387 445 15,500 -2,800 Descending Fort Worth Center
Thu 05:46:01 PM 33.5528 -96.2894 187° South 371 427 12,600 -2,400 Descending Fort Worth Center
Thu 05:47:01 PM 33.4736 -96.3003 187° South 338 389 10,700 -1,500 Descending Fort Worth Center
Thu 05:48:01 PM 33.3881 -96.3139 188° South 302 348 9,600 -800 Descending Fort Worth Center
Thu 05:49:01 PM 33.3108 -96.3272 188° South 288 331 9,100 -350 Descending Fort Worth Center
Thu 05:50:01 PM 33.2444 -96.3678 207° Southwest 276 318 8,900 -750 Descending Fort Worth Center
Thu 05:51:01 PM 33.1992 -96.4353 231° Southwest 265 305 7,600 -1,450 Descending Fort Worth Center
Thu 05:52:01 PM 33.1517 -96.5128 234° Southwest 286 329 6,000 -1,550 Descending Fort Worth Center
Thu 05:53:01 PM 33.1189 -96.5900 243° Southwest 270 311 4,500 -1,026 Descending Fort Worth Center
Thu 05:53:58 PM 33.0833 -96.6500 235° Southwest 232 267 4,000 -268 Descending Dallas / Fort Worth TRACON
Thu 05:54:53 PM 33.0667 -96.7167 253° West 235 270 4,000 -105 Level Dallas / Fort Worth TRACON
Thu 05:55:52 PM 33.0333 -96.7833 239° Southwest 239 275 3,800 -500 Descending Dallas / Fort Worth TRACON
Thu 05:56:53 PM 32.9833 -96.8333 220° Southwest 228 262 3,000 -850 Descending Dallas / Fort Worth TRACON
Thu 05:57:52 PM 32.9333 -96.8833 220° Southwest 220 253 2,100 -807 Descending Dallas / Fort Worth TRACON
Thu 05:58:52 PM 32.8833 -96.9000 196° South 156 180 1,400 -650 Descending Dallas / Fort Worth TRACON
Thu 05:59:52 PM 32.8667 -96.8667 121° Southeast 107 123 800 6,540 Descending Dallas / Fort Worth TRACON
Thu 06:02:01 PM 32.7842 -96.8847 190° South 138 159 22,000 9,860 Climbing Fort Worth Center

Login

Don't have an account? Register now (free) for customized features, flight alerts, and more!